Aeroporto :
LOGIN :

Iscrizione | Disclaimer

   EN    FR    IT 

 










Sommario :    VFR   VFR Marginale   IFR   IFR Intensivo   IFR Molto Intensivo
Visibilità : 
Base nubi : 
>= 8 km
>= 3000ft
5 / 8 km
1000 / 3000 ft
1500m / 5 km
500 / 1000 ft
800 / 1500m
200 / 500 ft
< 800m
< 200 ft
Simboli :   Temporali  Nebbia  Neve Forte  Precipitazioni Forti  Vento > 20 kt
SIGMETs :   Varie  Temporali  Ghiacco  Turbolenza  Onda orograficha  Ceneri Vulcaniche






- Altitudine del aeroporto : 117 ft
- Codice IATA : NWI


EGSH - Norwich

ULTIMO METAR :
  • 160850Z 16009KT 4500 -DZ BR SCT004 BKN008 14/13 Q1001

METARs OBSOLETI :
  • 160820Z 16008KT 130V190 8000 SCT009 BKN013 14/13 Q1002 TEMPO RA BKN006
  • 160750Z 16007KT 140V200 9999 -RA BKN013 13/12 Q1002 TEMPO RA BKN006
  • 160720Z 16007KT 9999 FEW049 13/12 Q1002 TEMPO BKN008
  • 160650Z 16006KT CAVOK 12/11 Q1002 NOSIG
  • 160620Z 15005KT CAVOK 11/11 Q1002 BECMG BKN008

TAF TAF EGSH
Valido dal 16 a 09 ore il 16 a 18 ore UTC


160758Z 1609/1618 16009KT 9999 FEW025
TEMPO 1609/1614 BKN008
PROB40
TEMPO 1609/1613 6000 RA BKN006
PROB30
TEMPO 1609/1612 2000 RADZ BKN003
BECMG 1612/1615 26012KT
ATIS : +44 1603 420 640



MetMap, La meteo Aeronautica in un colpo d'occhio ! - Copyright ORBIFLY Dicembre 2007 - Disclaimer

ORBIFLY MET'MAP TEAM :

Programmazione e sviluppo : Alexandra Zaïnal
Concezione e sviluppo : Baudouin d'Aumeries
Co-Programmazione e sviluppo : Marc-Olivier Méhu
Supporto tecnico e logistico : Manuel Goepfert
Aiuto per la traduzione : Arnaldo La Scala

Contatto : metmap@orbifly.com




FONTI E CREDITI :

   NOAA